createdAt,value
2018-05-21T00:02:09.330Z,34.20
2018-05-21T00:04:41.551Z,34.30
2018-05-21T00:07:14.015Z,34.30
2018-05-21T00:09:45.390Z,34.30
2018-05-21T00:12:16.815Z,34.30
2018-05-21T00:14:48.185Z,34.30
2018-05-21T00:17:19.572Z,34.40
2018-05-21T00:19:52.427Z,34.60
2018-05-21T00:22:23.817Z,34.60
2018-05-21T00:24:55.311Z,34.50
2018-05-21T00:27:27.627Z,34.70
2018-05-21T00:29:59.026Z,34.70
2018-05-21T00:32:30.408Z,34.80
2018-05-21T00:35:01.850Z,34.70
2018-05-21T00:37:33.327Z,34.70
2018-05-21T00:40:05.181Z,34.80
2018-05-21T00:42:37.016Z,35.20
2018-05-21T00:45:08.406Z,34.80
2018-05-21T00:47:39.993Z,35.00
2018-05-21T00:50:11.341Z,35.00
2018-05-21T00:52:44.568Z,35.10
2018-05-21T00:55:33.015Z,35.20
2018-05-21T00:58:04.033Z,35.10
2018-05-21T01:00:36.506Z,35.20
2018-05-21T01:03:08.669Z,35.40
2018-05-21T01:05:40.826Z,35.40
2018-05-21T01:08:12.658Z,35.50
2018-05-21T01:10:44.022Z,35.40
2018-05-21T01:13:16.193Z,35.60
2018-05-21T01:15:49.395Z,35.70
2018-05-21T01:18:20.975Z,35.80
2018-05-21T01:20:52.393Z,35.70
2018-05-21T01:23:24.010Z,35.80
2018-05-21T01:25:55.446Z,35.90
2018-05-21T01:28:26.825Z,35.80
2018-05-21T01:30:59.905Z,36.00
2018-05-21T01:33:31.253Z,36.00
2018-05-21T01:36:07.804Z,36.00
2018-05-21T01:38:39.516Z,36.10
2018-05-21T01:41:11.025Z,36.20
2018-05-21T01:43:42.438Z,36.20
2018-05-21T01:46:13.831Z,36.30
2018-05-21T01:48:45.200Z,36.30
2018-05-21T01:51:16.593Z,36.50
2018-05-21T01:53:48.731Z,36.40
2018-05-21T01:56:21.050Z,36.50
2018-05-21T01:58:52.441Z,36.60
2018-05-21T02:01:23.853Z,36.50
2018-05-21T02:03:56.282Z,36.70
2018-05-21T02:06:27.720Z,36.70
2018-05-21T02:08:59.229Z,36.60
2018-05-21T02:11:31.786Z,37.10
2018-05-21T02:14:03.209Z,36.90
2018-05-21T02:16:34.692Z,36.80
2018-05-21T02:19:07.583Z,37.10
2018-05-21T02:21:39.723Z,36.90
2018-05-21T02:24:11.119Z,36.90
2018-05-21T02:26:42.516Z,37.00
2018-05-21T02:29:13.921Z,37.10
2018-05-21T02:31:46.032Z,37.10
2018-05-21T02:34:17.434Z,37.20
2018-05-21T02:36:49.721Z,37.40
2018-05-21T02:39:21.199Z,37.30
2018-05-21T02:41:52.617Z,37.10
2018-05-21T02:44:24.831Z,37.40
2018-05-21T02:46:55.969Z,37.40
2018-05-21T02:49:27.349Z,37.40
2018-05-21T02:51:58.852Z,37.30
2018-05-21T02:54:30.203Z,37.40
2018-05-21T02:57:01.498Z,37.40
2018-05-21T02:59:32.847Z,37.50
2018-05-21T03:02:04.642Z,37.40
2018-05-21T03:04:36.088Z,37.50
2018-05-21T03:07:08.254Z,37.60
2018-05-21T03:09:40.411Z,37.60
2018-05-21T03:12:12.541Z,37.70
2018-05-21T03:14:44.218Z,37.60
2018-05-21T03:17:15.575Z,37.70
2018-05-21T03:19:47.733Z,37.80
2018-05-21T03:22:19.947Z,37.80
2018-05-21T03:24:52.198Z,37.80
2018-05-21T03:27:25.414Z,38.10
2018-05-21T03:29:57.639Z,37.90
2018-05-21T03:32:29.025Z,38.00
2018-05-21T03:35:00.403Z,38.00
2018-05-21T03:37:33.054Z,38.00
2018-05-21T03:40:04.209Z,38.10
2018-05-21T03:42:35.640Z,38.10
2018-05-21T03:45:07.786Z,38.30
2018-05-21T03:47:38.841Z,38.30
2018-05-21T03:50:10.429Z,38.30
2018-05-21T03:52:41.815Z,38.30
2018-05-21T03:55:13.202Z,38.40
2018-05-21T03:57:44.546Z,38.40
2018-05-21T04:00:32.554Z,38.60
2018-05-21T04:03:20.875Z,38.60
2018-05-21T04:05:54.059Z,38.40
2018-05-21T04:08:25.475Z,38.70
2018-05-21T04:10:57.641Z,38.80
2018-05-21T04:13:29.062Z,38.70
2018-05-21T04:16:00.518Z,38.70
2018-05-21T04:18:31.425Z,38.90
2018-05-21T04:21:03.027Z,38.90
2018-05-21T04:23:34.480Z,38.80
2018-05-21T04:26:05.871Z,38.90
2018-05-21T04:28:38.029Z,38.90
2018-05-21T04:31:10.172Z,39.50
2018-05-21T04:33:41.590Z,39.10
2018-05-21T04:36:13.903Z,39.20
2018-05-21T04:38:45.253Z,39.10
2018-05-21T04:41:17.451Z,39.10
2018-05-21T04:43:49.413Z,39.10
2018-05-21T04:46:20.786Z,39.10
2018-05-21T04:48:52.145Z,39.30
2018-05-21T04:51:23.522Z,39.20
2018-05-21T04:53:55.181Z,39.20
2018-05-21T04:56:26.554Z,39.20
2018-05-21T04:58:58.738Z,39.30
2018-05-21T05:01:30.897Z,39.30
2018-05-21T05:04:04.053Z,39.30
2018-05-21T05:06:35.607Z,39.30
2018-05-21T05:09:07.622Z,39.40
2018-05-21T05:11:39.010Z,39.50
2018-05-21T05:14:10.389Z,39.40
2018-05-21T05:16:42.665Z,39.50
2018-05-21T05:19:14.079Z,39.50
2018-05-21T05:21:45.627Z,39.50
2018-05-21T05:24:17.093Z,39.40
2018-05-21T05:26:48.451Z,39.60
2018-05-21T05:29:19.925Z,39.50
2018-05-21T05:31:51.309Z,39.50
2018-05-21T05:34:22.672Z,39.50
2018-05-21T05:36:54.174Z,39.50
2018-05-21T05:39:26.451Z,39.60
2018-05-21T05:41:57.842Z,39.60
2018-05-21T05:44:29.997Z,39.60
2018-05-21T05:47:02.235Z,39.60
2018-05-21T05:49:33.607Z,39.60
2018-05-21T05:52:04.722Z,39.50
2018-05-21T05:54:36.091Z,39.50
2018-05-21T05:57:07.491Z,39.60
2018-05-21T05:59:39.467Z,39.60
2018-05-21T06:02:10.818Z,39.60
2018-05-21T06:04:42.421Z,39.60
2018-05-21T06:07:14.854Z,39.90
2018-05-21T06:09:46.465Z,39.90
2018-05-21T06:12:19.169Z,39.80
2018-05-21T06:14:50.561Z,39.80
2018-05-21T06:17:22.488Z,39.80
2018-05-21T06:19:53.842Z,39.80
2018-05-21T06:22:25.747Z,39.80
2018-05-21T06:24:57.157Z,39.80
2018-05-21T06:27:29.717Z,39.90
2018-05-21T06:30:01.148Z,39.70
2018-05-21T06:32:33.345Z,40.00
2018-05-21T06:35:04.414Z,40.00
2018-05-21T06:37:35.834Z,39.90
2018-05-21T06:40:07.184Z,39.90
2018-05-21T06:42:39.390Z,39.60
2018-05-21T06:45:12.178Z,39.70
2018-05-21T06:47:43.631Z,39.70
2018-05-21T06:50:15.233Z,39.50
2018-05-21T06:52:46.624Z,39.50
2018-05-21T06:55:18.050Z,39.40
2018-05-21T06:57:49.816Z,39.40
2018-05-21T07:00:21.273Z,39.30
2018-05-21T07:02:53.701Z,39.30
2018-05-21T07:05:25.836Z,39.00
2018-05-21T07:07:58.998Z,39.30
2018-05-21T07:10:30.500Z,39.30
2018-05-21T07:13:01.924Z,39.00
2018-05-21T07:15:33.355Z,39.50
2018-05-21T07:18:04.689Z,39.00
2018-05-21T07:20:36.365Z,38.80
2018-05-21T07:23:07.507Z,38.80
2018-05-21T07:25:39.209Z,38.80
2018-05-21T07:28:11.620Z,38.40
2018-05-21T07:30:43.013Z,38.40
2018-05-21T07:33:14.647Z,38.50
2018-05-21T07:35:46.037Z,38.70
2018-05-21T07:38:18.236Z,38.70
2018-05-21T07:40:50.732Z,38.50
2018-05-21T07:43:22.974Z,38.40
2018-05-21T07:45:55.942Z,38.30
2018-05-21T07:48:27.353Z,38.20
2018-05-21T07:50:59.054Z,38.30
2018-05-21T07:53:30.465Z,38.30
2018-05-21T07:56:01.981Z,38.30
2018-05-21T07:58:33.769Z,38.30
2018-05-21T08:01:05.181Z,38.20
2018-05-21T08:03:36.736Z,38.10
2018-05-21T08:06:08.099Z,38.20
2018-05-21T08:08:40.230Z,38.00
2018-05-21T08:11:12.428Z,37.80
2018-05-21T08:13:44.633Z,38.20
2018-05-21T08:16:15.680Z,37.70
2018-05-21T08:18:47.065Z,37.90
2018-05-21T08:21:18.727Z,37.90
2018-05-21T08:23:50.938Z,38.00
2018-05-21T08:26:23.342Z,38.20
2018-05-21T08:28:55.258Z,38.10
2018-05-21T08:31:26.439Z,38.00
2018-05-21T08:33:58.871Z,38.00
2018-05-21T08:36:30.258Z,37.90
2018-05-21T08:39:01.643Z,37.60
2018-05-21T08:41:33.184Z,37.90
2018-05-21T08:44:04.585Z,37.90
2018-05-21T08:46:35.970Z,37.70
2018-05-21T08:49:07.422Z,37.50
2018-05-21T08:51:38.856Z,37.90
2018-05-21T08:54:10.846Z,37.80
2018-05-21T08:56:42.260Z,37.80
2018-05-21T08:59:14.437Z,37.90
2018-05-21T09:01:45.799Z,37.90
2018-05-21T09:04:17.970Z,37.70
2018-05-21T09:06:49.503Z,37.60
2018-05-21T09:09:21.680Z,37.50
2018-05-21T09:11:53.138Z,37.40
2018-05-21T09:14:25.310Z,37.30
2018-05-21T09:16:57.745Z,37.10
2018-05-21T09:19:29.921Z,37.10
2018-05-21T09:22:01.529Z,37.00
2018-05-21T09:24:32.908Z,36.90
2018-05-21T09:27:04.606Z,36.80
2018-05-21T09:29:37.462Z,36.30
2018-05-21T09:32:09.679Z,36.30
2018-05-21T09:34:41.402Z,36.10
2018-05-21T09:37:12.456Z,35.70
2018-05-21T09:39:44.621Z,35.70
2018-05-21T09:42:15.739Z,35.60
2018-05-21T09:44:47.104Z,35.70
2018-05-21T09:47:18.562Z,35.60
2018-05-21T09:49:50.045Z,35.50
2018-05-21T09:52:22.181Z,35.20
2018-05-21T09:54:53.647Z,34.40
2018-05-21T09:57:25.830Z,34.40
2018-05-21T09:59:57.984Z,35.00
2018-05-21T10:02:30.179Z,35.10
2018-05-21T10:05:01.895Z,35.00
2018-05-21T10:07:33.322Z,35.00
2018-05-21T10:10:04.806Z,34.80
2018-05-21T10:12:36.317Z,34.70
2018-05-21T10:15:07.375Z,35.10
2018-05-21T10:17:39.084Z,35.20
2018-05-21T10:20:10.487Z,35.40
2018-05-21T10:22:42.002Z,35.30
2018-05-21T10:25:13.989Z,35.10
2018-05-21T10:27:46.680Z,34.60
2018-05-21T10:30:20.149Z,34.30
2018-05-21T10:32:52.106Z,34.10
2018-05-21T10:35:24.102Z,34.20
2018-05-21T10:37:56.839Z,33.10
2018-05-21T10:40:28.436Z,32.90
2018-05-21T10:43:00.437Z,32.50
2018-05-21T10:45:32.249Z,32.10
2018-05-21T10:48:04.377Z,31.70
2018-05-21T10:50:36.454Z,30.60
2018-05-21T10:53:08.211Z,30.80
2018-05-21T10:55:40.344Z,30.40
2018-05-21T10:58:13.304Z,29.90
2018-05-21T11:00:45.308Z,29.80
2018-05-21T11:03:17.469Z,29.30
2018-05-21T11:05:49.458Z,29.30
2018-05-21T11:08:21.426Z,29.00
2018-05-21T11:10:53.460Z,28.60
2018-05-21T11:13:26.699Z,28.20
2018-05-21T11:15:59.031Z,28.10
2018-05-21T11:18:31.092Z,27.40
2018-05-21T11:21:03.318Z,26.70
2018-05-21T11:23:35.415Z,26.40
2018-05-21T11:26:08.306Z,26.30
2018-05-21T11:28:40.265Z,26.50
2018-05-21T11:31:13.006Z,25.90
2018-05-21T11:33:45.014Z,25.90
2018-05-21T11:36:17.765Z,25.40
2018-05-21T11:38:49.811Z,25.30
2018-05-21T11:41:21.790Z,25.70
2018-05-21T11:43:53.713Z,26.00
2018-05-21T11:46:25.838Z,26.30
2018-05-21T11:48:57.914Z,26.60
2018-05-21T11:51:29.873Z,26.60
2018-05-21T11:54:01.593Z,26.40
2018-05-21T11:56:33.559Z,26.00
2018-05-21T11:59:07.077Z,25.50
2018-05-21T12:01:39.068Z,25.40
2018-05-21T12:04:11.041Z,25.00
2018-05-21T12:06:43.154Z,24.10
2018-05-21T12:09:16.274Z,23.20
2018-05-21T12:11:48.345Z,23.00
2018-05-21T12:14:20.600Z,22.60
2018-05-21T12:16:52.501Z,22.40
2018-05-21T12:19:24.470Z,22.40
2018-05-21T12:21:57.247Z,21.60
2018-05-21T12:24:29.226Z,21.60
2018-05-21T12:27:01.925Z,21.40
2018-05-21T12:29:33.886Z,21.30
2018-05-21T12:32:06.248Z,21.60
2018-05-21T12:34:38.186Z,21.60
2018-05-21T12:37:10.287Z,21.20
2018-05-21T12:39:42.252Z,21.40
2018-05-21T12:42:14.971Z,21.40
2018-05-21T12:44:46.883Z,21.30
2018-05-21T12:47:18.827Z,21.30
2018-05-21T12:49:50.982Z,20.60
2018-05-21T12:52:22.942Z,20.20
2018-05-21T12:54:55.297Z,20.40
2018-05-21T12:57:27.193Z,20.40
2018-05-21T12:59:59.190Z,20.20
2018-05-21T13:02:31.151Z,20.20
2018-05-21T13:05:03.187Z,20.00
2018-05-21T13:07:35.324Z,20.10
2018-05-21T13:10:07.576Z,20.20
2018-05-21T13:12:40.540Z,19.90
2018-05-21T13:15:13.326Z,19.40
2018-05-21T13:17:45.469Z,19.30
2018-05-21T13:20:17.431Z,19.00
2018-05-21T13:22:49.459Z,19.20
2018-05-21T13:25:21.403Z,19.30
2018-05-21T13:27:53.409Z,19.40
2018-05-21T13:30:26.429Z,19.40
2018-05-21T13:32:59.878Z,18.80
2018-05-21T13:35:31.850Z,18.80
2018-05-21T13:38:03.852Z,19.00
2018-05-21T13:40:35.905Z,18.30
2018-05-21T13:43:07.940Z,18.40
2018-05-21T13:45:40.050Z,18.50
2018-05-21T13:48:11.989Z,18.40
2018-05-21T13:50:43.920Z,18.50
2018-05-21T13:53:15.891Z,18.50
2018-05-21T13:55:48.219Z,18.80
2018-05-21T13:58:20.121Z,18.90
2018-05-21T14:00:52.271Z,18.80
2018-05-21T14:03:25.068Z,19.10
2018-05-21T14:05:57.745Z,19.10
2018-05-21T14:08:29.733Z,19.10
2018-05-21T14:11:01.690Z,19.20
2018-05-21T14:13:33.690Z,19.40
2018-05-21T14:16:05.589Z,19.50
2018-05-21T14:18:38.575Z,19.60
2018-05-21T14:21:11.407Z,19.80
2018-05-21T14:23:43.689Z,19.80
2018-05-21T14:26:15.402Z,20.00
2018-05-21T14:28:47.411Z,20.20
2018-05-21T14:31:20.126Z,20.40
2018-05-21T14:33:52.898Z,20.30
2018-05-21T14:36:24.794Z,20.30
2018-05-21T14:38:56.813Z,20.60
2018-05-21T14:41:27.744Z,20.80
2018-05-21T14:43:59.861Z,21.00
2018-05-21T14:46:31.976Z,21.40
2018-05-21T14:49:04.685Z,21.40
2018-05-21T14:51:37.407Z,21.40
2018-05-21T14:54:09.336Z,21.30
2018-05-21T14:56:41.254Z,21.00
2018-05-21T14:59:13.169Z,21.40
2018-05-21T15:01:45.948Z,22.10
2018-05-21T15:04:18.633Z,22.00
2018-05-21T15:06:52.037Z,22.40
2018-05-21T15:09:24.097Z,22.20
2018-05-21T15:11:56.107Z,21.60
2018-05-21T15:14:28.072Z,21.10
2018-05-21T15:17:00.011Z,20.90
2018-05-21T15:19:32.007Z,20.90
2018-05-21T15:22:03.927Z,21.00
2018-05-21T15:24:35.970Z,21.50
2018-05-21T15:27:07.876Z,21.90
2018-05-21T15:29:39.838Z,22.10
2018-05-21T15:32:11.781Z,21.90
2018-05-21T15:34:43.733Z,21.90
2018-05-21T15:37:16.772Z,22.10
2018-05-21T15:39:48.685Z,22.00
2018-05-21T15:42:21.390Z,21.50
2018-05-21T15:44:53.648Z,21.50
2018-05-21T15:47:26.863Z,21.40
2018-05-21T15:49:58.809Z,21.50
2018-05-21T15:52:31.585Z,21.70
2018-05-21T15:55:03.584Z,21.60
2018-05-21T15:57:35.653Z,21.70
2018-05-21T16:00:07.049Z,21.80
2018-05-21T16:02:39.054Z,21.80
2018-05-21T16:05:11.135Z,22.50
2018-05-21T16:07:43.151Z,22.10
2018-05-21T16:10:15.909Z,22.30
2018-05-21T16:12:47.893Z,22.30
2018-05-21T16:15:19.951Z,22.30
2018-05-21T16:17:52.239Z,22.40
2018-05-21T16:20:24.395Z,22.40
2018-05-21T16:22:55.796Z,22.40
2018-05-21T16:25:27.756Z,22.50
2018-05-21T16:27:59.671Z,22.70
2018-05-21T16:30:31.461Z,22.70
2018-05-21T16:33:02.856Z,22.80
2018-05-21T16:35:34.271Z,23.00
2018-05-21T16:38:05.183Z,23.00
2018-05-21T16:40:39.516Z,23.20
2018-05-21T16:43:10.904Z,23.10
2018-05-21T16:45:43.256Z,23.10
2018-05-21T16:48:14.628Z,23.10
2018-05-21T16:50:46.790Z,23.30
2018-05-21T16:53:18.994Z,23.40
2018-05-21T16:55:50.091Z,23.30
2018-05-21T16:58:22.310Z,23.90
2018-05-21T17:00:53.713Z,23.40
2018-05-21T17:03:25.882Z,23.50
2018-05-21T17:05:57.454Z,23.50
2018-05-21T17:08:29.616Z,23.60
2018-05-21T17:11:01.028Z,23.60
2018-05-21T17:13:32.490Z,23.80
2018-05-21T17:16:04.554Z,23.70
2018-05-21T17:18:36.398Z,23.80
2018-05-21T17:21:08.892Z,23.90
2018-05-21T17:23:40.310Z,23.80
2018-05-21T17:26:12.439Z,24.00
2018-05-21T17:28:43.881Z,23.90
2018-05-21T17:31:15.799Z,24.00
2018-05-21T17:33:47.997Z,24.10
2018-05-21T17:36:19.369Z,24.10
2018-05-21T17:38:50.796Z,24.20
2018-05-21T17:41:22.181Z,24.20
2018-05-21T17:43:53.629Z,24.30
2018-05-21T17:46:25.528Z,24.30
2018-05-21T17:48:57.298Z,24.50
2018-05-21T17:51:29.430Z,25.00
2018-05-21T17:54:00.971Z,24.50
2018-05-21T17:56:32.401Z,24.50
2018-05-21T17:59:03.848Z,24.60
2018-05-21T18:01:35.229Z,24.60
2018-05-21T18:04:06.917Z,24.70
2018-05-21T18:06:38.491Z,24.70
2018-05-21T18:09:09.893Z,24.80
2018-05-21T18:11:41.620Z,24.90
2018-05-21T18:14:13.042Z,24.90
2018-05-21T18:16:44.560Z,25.00
2018-05-21T18:19:17.480Z,25.10
2018-05-21T18:21:48.947Z,25.20
2018-05-21T18:24:20.358Z,25.20
2018-05-21T18:26:51.775Z,25.30
2018-05-21T18:29:23.185Z,25.30
2018-05-21T18:31:55.406Z,25.70
2018-05-21T18:34:27.097Z,25.70
2018-05-21T18:36:58.563Z,25.60
2018-05-21T18:39:31.145Z,25.60
2018-05-21T18:42:02.571Z,25.60
2018-05-21T18:44:34.029Z,25.70
2018-05-21T18:47:06.914Z,25.80
2018-05-21T18:49:39.133Z,25.80
2018-05-21T18:52:10.480Z,25.70
2018-05-21T18:54:41.881Z,25.80
2018-05-21T18:57:13.410Z,25.80
2018-05-21T18:59:44.873Z,25.80
2018-05-21T19:02:16.263Z,25.80
2018-05-21T19:04:47.694Z,25.90
2018-05-21T19:07:19.306Z,25.90
2018-05-21T19:09:51.042Z,26.30
2018-05-21T19:12:22.484Z,26.00
2018-05-21T19:14:54.150Z,26.00
2018-05-21T19:17:25.590Z,26.10
2018-05-21T19:19:57.332Z,26.10
2018-05-21T19:22:29.557Z,26.20
2018-05-21T19:25:00.969Z,26.20
2018-05-21T19:27:33.175Z,26.30
2018-05-21T19:30:03.947Z,26.30
2018-05-21T19:32:35.797Z,26.40
2018-05-21T19:35:07.213Z,26.50
2018-05-21T19:37:38.942Z,26.50
2018-05-21T19:40:11.248Z,26.70
2018-05-21T19:42:42.782Z,26.60
2018-05-21T19:45:14.351Z,26.70
2018-05-21T19:47:45.714Z,26.70
2018-05-21T19:50:17.129Z,26.80
2018-05-21T19:52:48.575Z,26.80
2018-05-21T19:55:20.737Z,26.90
2018-05-21T19:57:53.245Z,27.20
2018-05-21T20:00:24.721Z,26.90
2018-05-21T20:02:56.302Z,27.10
2018-05-21T20:05:28.750Z,27.00
2018-05-21T20:08:00.111Z,27.10
2018-05-21T20:10:31.038Z,27.00
2018-05-21T20:13:02.408Z,27.20
2018-05-21T20:15:33.822Z,27.30
2018-05-21T20:18:05.551Z,27.30
2018-05-21T20:20:43.864Z,27.30
2018-05-21T20:23:15.571Z,27.40
2018-05-21T20:25:46.947Z,27.40
2018-05-21T20:28:18.496Z,27.50
2018-05-21T20:30:49.879Z,27.60
2018-05-21T20:33:21.456Z,27.60
2018-05-21T20:35:53.575Z,27.80
2018-05-21T20:38:26.518Z,27.90
2018-05-21T20:40:57.968Z,27.90
2018-05-21T20:43:29.407Z,27.90
2018-05-21T20:46:01.584Z,28.10
2018-05-21T20:48:33.407Z,28.10
2018-05-21T20:51:04.897Z,28.10
2018-05-21T20:53:37.038Z,28.20
2018-05-21T20:56:08.886Z,28.30
2018-05-21T20:58:41.097Z,28.40
2018-05-21T21:01:12.593Z,28.40
2018-05-21T21:03:44.168Z,28.50
2018-05-21T21:06:15.787Z,28.60
2018-05-21T21:08:47.147Z,28.60
2018-05-21T21:11:18.587Z,28.70
2018-05-21T21:13:50.050Z,28.80
2018-05-21T21:16:21.603Z,28.70
2018-05-21T21:18:53.029Z,28.90
2018-05-21T21:21:24.409Z,29.10
2018-05-21T21:23:55.865Z,29.30
2018-05-21T21:26:27.580Z,29.20
2018-05-21T21:28:59.732Z,29.70
2018-05-21T21:31:31.859Z,29.70
2018-05-21T21:34:03.289Z,29.70
2018-05-21T21:36:34.687Z,29.70
2018-05-21T21:39:06.305Z,29.90
2018-05-21T21:41:37.671Z,30.00
2018-05-21T21:44:09.067Z,30.00
2018-05-21T21:46:40.428Z,29.90
2018-05-21T21:49:12.618Z,30.20
2018-05-21T21:51:44.015Z,30.20
2018-05-21T21:54:15.855Z,30.50
2018-05-21T21:56:47.499Z,30.80
2018-05-21T21:59:18.649Z,30.90
2018-05-21T22:01:49.900Z,31.10
2018-05-21T22:04:21.254Z,31.30
2018-05-21T22:06:52.682Z,31.50
2018-05-21T22:09:24.127Z,31.90
2018-05-21T22:11:55.233Z,32.20
2018-05-21T22:14:27.018Z,33.30
2018-05-21T22:16:59.259Z,34.30
2018-05-21T22:19:31.446Z,34.90
2018-05-21T22:22:03.929Z,36.10
2018-05-21T22:24:35.357Z,36.20
2018-05-21T22:27:06.873Z,36.80
2018-05-21T22:29:38.233Z,37.30
2018-05-21T22:32:09.668Z,38.50
2018-05-21T22:34:42.154Z,39.20
2018-05-21T22:37:13.620Z,39.30
2018-05-21T22:39:45.063Z,39.60
2018-05-21T22:42:17.283Z,40.30
2018-05-21T22:44:49.816Z,41.30
2018-05-21T22:47:21.280Z,40.70
2018-05-21T22:49:52.782Z,41.10
2018-05-21T22:52:24.220Z,40.90
2018-05-21T22:54:55.602Z,41.60
2018-05-21T22:57:26.985Z,42.00
2018-05-21T22:59:58.414Z,42.10
2018-05-21T23:02:29.749Z,42.70
2018-05-21T23:05:01.179Z,43.00
2018-05-21T23:07:32.923Z,43.20
2018-05-21T23:10:04.073Z,43.10
2018-05-21T23:12:35.600Z,43.60
2018-05-21T23:15:07.197Z,43.50
2018-05-21T23:17:38.619Z,43.80
2018-05-21T23:20:10.026Z,44.10
2018-05-21T23:22:45.965Z,43.90
2018-05-21T23:25:18.161Z,44.60
2018-05-21T23:27:50.468Z,44.60
2018-05-21T23:30:21.851Z,44.90
2018-05-21T23:32:53.297Z,45.20
2018-05-21T23:35:25.465Z,45.40
2018-05-21T23:37:56.866Z,45.00
2018-05-21T23:40:28.225Z,45.10
2018-05-21T23:42:59.743Z,45.20
2018-05-21T23:45:31.147Z,45.30
2018-05-21T23:48:03.565Z,45.90
2018-05-21T23:50:34.935Z,45.60
2018-05-21T23:53:06.345Z,46.40
2018-05-21T23:55:38.523Z,46.70
2018-05-21T23:58:10.707Z,46.30
